LOWS/SZG METAR and TAF weather

Enter ICAO airport designator
Station Type Date Time Source
LOWS METAR 2020/03/29 21:20 UTC NOAA

LOWS 292120Z AUTO 35004KT 9999 FEW032 BKN036 05/M00 Q1020


Station Type Date Time Source
LOWS Decoded METAR 2020/03/29 21:20 UTC NOAA

Salzburg-Flughafen, Austria (LOWS) 47-48N 013-00E 450M
Mar 29, 2020 - 05:20 PM EDT / 2020.03.29 2120 UTC
Wind: from the N (350 degrees) at 5 MPH (4 KT):0
Visibility: greater than 7 mile(s):0
Sky conditions: mostly cloudy
Temperature: 41 F (5 C)
Dew Point: 32 F (0 C)
Relative Humidity: 70%
Pressure (altimeter): 30.12 in. Hg (1020 hPa)
ob: LOWS 292120Z AUTO 35004KT 9999 FEW032 BKN036 05/M00 Q1020
cycle: 21

Station Type Date Time Source
LOWS TAF 2020/03/29 18:23 UTC NOAA

TAF LOWS 291715Z 2918/3018 30006KT 9999 SCT040 BKN050 TX06/2918Z TNM00/3018Z
TEMPO 2918/2924 -RA
TEMPO 3000/3004 2000 RASN BKN014
BECMG 3002/3004 01006KT -SN SCT012 BKN020
TEMPO 3004/3008 1200 SN BKN009
BECMG 3012/3014 NSW
BECMG 3014/3016 SCT050 BKN070

Example: see airport list